sensor_id;sensor_type;location;lat;lon;timestamp;P1;durP1;ratioP1;P2;durP2;ratioP2
9665;SDS011;4871;52.004;5.924;2023-04-23T00:00:00;33.70;;;22.90;;
9665;SDS011;4871;52.004;5.924;2023-04-23T00:01:01;33.70;;;22.90;;
9665;SDS011;4871;52.004;5.924;2023-04-23T00:02:01;33.70;;;22.90;;
9665;SDS011;4871;52.004;5.924;2023-04-23T00:03:00;33.70;;;22.90;;
9665;SDS011;4871;52.004;5.924;2023-04-23T00:04:00;33.70;;;22.90;;
9665;SDS011;4871;52.004;5.924;2023-04-23T00:05:02;33.70;;;22.90;;
9665;SDS011;4871;52.004;5.924;2023-04-23T00:06:01;33.70;;;22.90;;
9665;SDS011;4871;52.004;5.924;2023-04-23T00:07:01;33.70;;;22.90;;
9665;SDS011;4871;52.004;5.924;2023-04-23T00:08:00;33.70;;;22.90;;
9665;SDS011;4871;52.004;5.924;2023-04-23T00:09:00;33.70;;;22.90;;
9665;SDS011;4871;52.004;5.924;2023-04-23T00:10:01;33.70;;;22.90;;
9665;SDS011;4871;52.004;5.924;2023-04-23T00:11:00;33.70;;;22.90;;
9665;SDS011;4871;52.004;5.924;2023-04-23T00:12:01;33.70;;;22.90;;
9665;SDS011;4871;52.004;5.924;2023-04-23T00:13:00;33.70;;;22.90;;
9665;SDS011;4871;52.004;5.924;2023-04-23T00:14:00;33.70;;;22.90;;
9665;SDS011;4871;52.004;5.924;2023-04-23T00:15:00;33.70;;;22.90;;
9665;SDS011;4871;52.004;5.924;2023-04-23T00:16:00;33.70;;;22.90;;
9665;SDS011;4871;52.004;5.924;2023-04-23T00:17:00;33.70;;;22.90;;
9665;SDS011;4871;52.004;5.924;2023-04-23T00:18:00;33.70;;;22.90;;
9665;SDS011;4871;52.004;5.924;2023-04-23T00:19:00;33.70;;;22.90;;
9665;SDS011;4871;52.004;5.924;2023-04-23T00:20:00;33.70;;;22.90;;
9665;SDS011;4871;52.004;5.924;2023-04-23T00:21:00;33.70;;;22.90;;
9665;SDS011;4871;52.004;5.924;2023-04-23T00:22:00;33.70;;;22.90;;
9665;SDS011;4871;52.004;5.924;2023-04-23T00:23:00;33.70;;;22.90;;
9665;SDS011;4871;52.004;5.924;2023-04-23T00:24:00;33.70;;;22.90;;
9665;SDS011;4871;52.004;5.924;2023-04-23T00:25:00;31.60;;;22.80;;
9665;SDS011;4871;52.004;5.924;2023-04-23T00:26:00;31.60;;;22.80;;
9665;SDS011;4871;52.004;5.924;2023-04-23T00:27:00;31.60;;;22.80;;
9665;SDS011;4871;52.004;5.924;2023-04-23T00:28:00;31.60;;;22.80;;
9665;SDS011;4871;52.004;5.924;2023-04-23T00:29:00;31.60;;;22.80;;
9665;SDS011;4871;52.004;5.924;2023-04-23T00:30:00;31.60;;;22.80;;
9665;SDS011;4871;52.004;5.924;2023-04-23T00:31:00;31.60;;;22.80;;
9665;SDS011;4871;52.004;5.924;2023-04-23T00:32:00;31.60;;;22.80;;
9665;SDS011;4871;52.004;5.924;2023-04-23T00:33:00;31.60;;;22.80;;
9665;SDS011;4871;52.004;5.924;2023-04-23T00:34:00;31.60;;;22.80;;
9665;SDS011;4871;52.004;5.924;2023-04-23T00:35:00;31.60;;;22.80;;
9665;SDS011;4871;52.004;5.924;2023-04-23T00:36:00;31.60;;;22.80;;
9665;SDS011;4871;52.004;5.924;2023-04-23T00:37:04;31.60;;;22.80;;
9665;SDS011;4871;52.004;5.924;2023-04-23T00:38:00;31.60;;;22.80;;
9665;SDS011;4871;52.004;5.924;2023-04-23T00:39:00;31.60;;;22.80;;
9665;SDS011;4871;52.004;5.924;2023-04-23T00:40:01;31.60;;;22.80;;
9665;SDS011;4871;52.004;5.924;2023-04-23T00:41:00;31.60;;;22.80;;
9665;SDS011;4871;52.004;5.924;2023-04-23T00:42:06;31.60;;;22.80;;
9665;SDS011;4871;52.004;5.924;2023-04-23T00:43:00;31.60;;;22.80;;
9665;SDS011;4871;52.004;5.924;2023-04-23T00:44:00;31.60;;;22.80;;
9665;SDS011;4871;52.004;5.924;2023-04-23T00:45:01;31.60;;;22.80;;
9665;SDS011;4871;52.004;5.924;2023-04-23T00:46:00;31.60;;;22.80;;
9665;SDS011;4871;52.004;5.924;2023-04-23T00:47:00;31.60;;;22.80;;
9665;SDS011;4871;52.004;5.924;2023-04-23T00:48:00;31.60;;;22.80;;
9665;SDS011;4871;52.004;5.924;2023-04-23T00:49:00;31.60;;;22.80;;
9665;SDS011;4871;52.004;5.924;2023-04-23T00:50:00;31.60;;;22.80;;
9665;SDS011;4871;52.004;5.924;2023-04-23T00:51:02;31.60;;;22.80;;
9665;SDS011;4871;52.004;5.924;2023-04-23T00:52:00;31.60;;;22.80;;
9665;SDS011;4871;52.004;5.924;2023-04-23T00:53:00;31.60;;;22.80;;
9665;SDS011;4871;52.004;5.924;2023-04-23T00:54:00;32.20;;;21.30;;
9665;SDS011;4871;52.004;5.924;2023-04-23T00:55:00;32.20;;;21.30;;
9665;SDS011;4871;52.004;5.924;2023-04-23T00:56:00;32.20;;;21.30;;
9665;SDS011;4871;52.004;5.924;2023-04-23T00:57:01;32.20;;;21.30;;
9665;SDS011;4871;52.004;5.924;2023-04-23T00:58:00;32.20;;;21.30;;
9665;SDS011;4871;52.004;5.924;2023-04-23T00:59:02;32.20;;;21.30;;
9665;SDS011;4871;52.004;5.924;2023-04-23T01:00:00;32.20;;;21.30;;
9665;SDS011;4871;52.004;5.924;2023-04-23T01:01:03;32.20;;;21.30;;
9665;SDS011;4871;52.004;5.924;2023-04-23T01:02:00;32.20;;;21.30;;
9665;SDS011;4871;52.004;5.924;2023-04-23T01:03:00;32.20;;;21.30;;
9665;SDS011;4871;52.004;5.924;2023-04-23T01:04:00;32.20;;;21.30;;
9665;SDS011;4871;52.004;5.924;2023-04-23T01:05:00;32.20;;;21.30;;
9665;SDS011;4871;52.004;5.924;2023-04-23T01:06:00;32.20;;;21.30;;
9665;SDS011;4871;52.004;5.924;2023-04-23T01:07:00;32.20;;;21.30;;
9665;SDS011;4871;52.004;5.924;2023-04-23T01:08:00;32.20;;;21.30;;
9665;SDS011;4871;52.004;5.924;2023-04-23T01:09:00;32.20;;;21.30;;
9665;SDS011;4871;52.004;5.924;2023-04-23T01:10:00;32.20;;;21.30;;
9665;SDS011;4871;52.004;5.924;2023-04-23T01:11:00;32.20;;;21.30;;
9665;SDS011;4871;52.004;5.924;2023-04-23T01:12:01;32.20;;;21.30;;
9665;SDS011;4871;52.004;5.924;2023-04-23T01:13:00;32.20;;;21.30;;
9665;SDS011;4871;52.004;5.924;2023-04-23T01:14:00;32.20;;;21.30;;
9665;SDS011;4871;52.004;5.924;2023-04-23T01:15:00;32.20;;;21.30;;
9665;SDS011;4871;52.004;5.924;2023-04-23T01:16:00;32.20;;;21.30;;
9665;SDS011;4871;52.004;5.924;2023-04-23T01:17:00;32.20;;;21.30;;
9665;SDS011;4871;52.004;5.924;2023-04-23T01:18:00;32.20;;;21.30;;
9665;SDS011;4871;52.004;5.924;2023-04-23T01:19:01;32.20;;;21.30;;
9665;SDS011;4871;52.004;5.924;2023-04-23T01:20:00;32.20;;;21.30;;
9665;SDS011;4871;52.004;5.924;2023-04-23T01:21:00;32.20;;;21.30;;
9665;SDS011;4871;52.004;5.924;2023-04-23T01:22:00;32.20;;;21.30;;
9665;SDS011;4871;52.004;5.924;2023-04-23T01:23:00;32.20;;;21.30;;
9665;SDS011;4871;52.004;5.924;2023-04-23T01:24:00;28.70;;;20.10;;
9665;SDS011;4871;52.004;5.924;2023-04-23T01:25:00;28.70;;;20.10;;
9665;SDS011;4871;52.004;5.924;2023-04-23T01:26:00;28.70;;;20.10;;
9665;SDS011;4871;52.004;5.924;2023-04-23T01:27:00;28.70;;;20.10;;
9665;SDS011;4871;52.004;5.924;2023-04-23T01:28:00;28.70;;;20.10;;
9665;SDS011;4871;52.004;5.924;2023-04-23T01:29:00;28.70;;;20.10;;
9665;SDS011;4871;52.004;5.924;2023-04-23T01:30:00;28.70;;;20.10;;
9665;SDS011;4871;52.004;5.924;2023-04-23T01:31:00;28.70;;;20.10;;
9665;SDS011;4871;52.004;5.924;2023-04-23T01:32:00;28.70;;;20.10;;
9665;SDS011;4871;52.004;5.924;2023-04-23T01:33:00;28.70;;;20.10;;
9665;SDS011;4871;52.004;5.924;2023-04-23T01:34:00;28.70;;;20.10;;
9665;SDS011;4871;52.004;5.924;2023-04-23T01:35:00;28.70;;;20.10;;
9665;SDS011;4871;52.004;5.924;2023-04-23T01:36:00;28.70;;;20.10;;
9665;SDS011;4871;52.004;5.924;2023-04-23T01:37:00;28.70;;;20.10;;
9665;SDS011;4871;52.004;5.924;2023-04-23T01:38:01;28.70;;;20.10;;
9665;SDS011;4871;52.004;5.924;2023-04-23T01:39:00;28.70;;;20.10;;
9665;SDS011;4871;52.004;5.924;2023-04-23T01:40:00;28.70;;;20.10;;
9665;SDS011;4871;52.004;5.924;2023-04-23T01:41:00;28.70;;;20.10;;
9665;SDS011;4871;52.004;5.924;2023-04-23T01:42:01;28.70;;;20.10;;
9665;SDS011;4871;52.004;5.924;2023-04-23T01:43:00;28.70;;;20.10;;
9665;SDS011;4871;52.004;5.924;2023-04-23T01:44:00;28.70;;;20.10;;
9665;SDS011;4871;52.004;5.924;2023-04-23T01:45:00;28.70;;;20.10;;
9665;SDS011;4871;52.004;5.924;2023-04-23T01:46:00;28.70;;;20.10;;
9665;SDS011;4871;52.004;5.924;2023-04-23T01:47:00;28.70;;;20.10;;
9665;SDS011;4871;52.004;5.924;2023-04-23T01:48:00;28.70;;;20.10;;
9665;SDS011;4871;52.004;5.924;2023-04-23T01:49:00;28.70;;;20.10;;
9665;SDS011;4871;52.004;5.924;2023-04-23T01:50:00;28.70;;;20.10;;
9665;SDS011;4871;52.004;5.924;2023-04-23T01:51:00;28.70;;;20.10;;
9665;SDS011;4871;52.004;5.924;2023-04-23T01:52:00;28.70;;;20.10;;
9665;SDS011;4871;52.004;5.924;2023-04-23T01:53:00;28.70;;;20.10;;
9665;SDS011;4871;52.004;5.924;2023-04-23T01:54:00;37.70;;;24.60;;
9665;SDS011;4871;52.004;5.924;2023-04-23T01:55:01;37.70;;;24.60;;
9665;SDS011;4871;52.004;5.924;2023-04-23T01:56:00;37.70;;;24.60;;
9665;SDS011;4871;52.004;5.924;2023-04-23T01:57:00;37.70;;;24.60;;
9665;SDS011;4871;52.004;5.924;2023-04-23T01:58:00;37.70;;;24.60;;
9665;SDS011;4871;52.004;5.924;2023-04-23T01:59:00;37.70;;;24.60;;
9665;SDS011;4871;52.004;5.924;2023-04-23T02:00:02;37.70;;;24.60;;
9665;SDS011;4871;52.004;5.924;2023-04-23T02:01:00;37.70;;;24.60;;
9665;SDS011;4871;52.004;5.924;2023-04-23T02:02:00;37.70;;;24.60;;
9665;SDS011;4871;52.004;5.924;2023-04-23T02:03:00;37.70;;;24.60;;
9665;SDS011;4871;52.004;5.924;2023-04-23T02:04:00;37.70;;;24.60;;
9665;SDS011;4871;52.004;5.924;2023-04-23T02:05:03;37.70;;;24.60;;
9665;SDS011;4871;52.004;5.924;2023-04-23T02:06:00;37.70;;;24.60;;
9665;SDS011;4871;52.004;5.924;2023-04-23T02:07:00;37.70;;;24.60;;
9665;SDS011;4871;52.004;5.924;2023-04-23T02:08:00;37.70;;;24.60;;
9665;SDS011;4871;52.004;5.924;2023-04-23T02:09:00;37.70;;;24.60;;
9665;SDS011;4871;52.004;5.924;2023-04-23T02:10:00;37.70;;;24.60;;
9665;SDS011;4871;52.004;5.924;2023-04-23T02:11:00;37.70;;;24.60;;
9665;SDS011;4871;52.004;5.924;2023-04-23T02:12:00;37.70;;;24.60;;
9665;SDS011;4871;52.004;5.924;2023-04-23T02:13:00;37.70;;;24.60;;
9665;SDS011;4871;52.004;5.924;2023-04-23T02:14:00;37.70;;;24.60;;
9665;SDS011;4871;52.004;5.924;2023-04-23T02:15:00;37.70;;;24.60;;
9665;SDS011;4871;52.004;5.924;2023-04-23T02:16:00;37.70;;;24.60;;
9665;SDS011;4871;52.004;5.924;2023-04-23T02:17:00;37.70;;;24.60;;
9665;SDS011;4871;52.004;5.924;2023-04-23T02:18:00;37.70;;;24.60;;
9665;SDS011;4871;52.004;5.924;2023-04-23T02:19:00;37.70;;;24.60;;
9665;SDS011;4871;52.004;5.924;2023-04-23T02:20:00;37.70;;;24.60;;
9665;SDS011;4871;52.004;5.924;2023-04-23T02:21:00;37.70;;;24.60;;
9665;SDS011;4871;52.004;5.924;2023-04-23T02:22:00;37.70;;;24.60;;
9665;SDS011;4871;52.004;5.924;2023-04-23T02:23:01;37.70;;;24.60;;
9665;SDS011;4871;52.004;5.924;2023-04-23T02:24:00;40.30;;;25.00;;
9665;SDS011;4871;52.004;5.924;2023-04-23T02:25:00;40.30;;;25.00;;
9665;SDS011;4871;52.004;5.924;2023-04-23T02:26:00;40.30;;;25.00;;
9665;SDS011;4871;52.004;5.924;2023-04-23T02:27:00;40.30;;;25.00;;
9665;SDS011;4871;52.004;5.924;2023-04-23T02:28:04;40.30;;;25.00;;
9665;SDS011;4871;52.004;5.924;2023-04-23T02:29:00;40.30;;;25.00;;
9665;SDS011;4871;52.004;5.924;2023-04-23T02:30:01;40.30;;;25.00;;
9665;SDS011;4871;52.004;5.924;2023-04-23T02:31:00;40.30;;;25.00;;
9665;SDS011;4871;52.004;5.924;2023-04-23T02:32:00;40.30;;;25.00;;
9665;SDS011;4871;52.004;5.924;2023-04-23T02:33:00;40.30;;;25.00;;
9665;SDS011;4871;52.004;5.924;2023-04-23T02:34:00;40.30;;;25.00;;
9665;SDS011;4871;52.004;5.924;2023-04-23T02:35:01;40.30;;;25.00;;
9665;SDS011;4871;52.004;5.924;2023-04-23T02:36:00;40.30;;;25.00;;
9665;SDS011;4871;52.004;5.924;2023-04-23T02:37:00;40.30;;;25.00;;
9665;SDS011;4871;52.004;5.924;2023-04-23T02:38:00;40.30;;;25.00;;
9665;SDS011;4871;52.004;5.924;2023-04-23T02:39:00;40.30;;;25.00;;
9665;SDS011;4871;52.004;5.924;2023-04-23T02:40:00;40.30;;;25.00;;
9665;SDS011;4871;52.004;5.924;2023-04-23T02:41:00;40.30;;;25.00;;
9665;SDS011;4871;52.004;5.924;2023-04-23T02:42:00;40.30;;;25.00;;
9665;SDS011;4871;52.004;5.924;2023-04-23T02:43:00;40.30;;;25.00;;
9665;SDS011;4871;52.004;5.924;2023-04-23T02:44:00;40.30;;;25.00;;
9665;SDS011;4871;52.004;5.924;2023-04-23T02:45:00;40.30;;;25.00;;
9665;SDS011;4871;52.004;5.924;2023-04-23T02:46:06;40.30;;;25.00;;
9665;SDS011;4871;52.004;5.924;2023-04-23T02:47:00;40.30;;;25.00;;
9665;SDS011;4871;52.004;5.924;2023-04-23T02:48:00;40.30;;;25.00;;
9665;SDS011;4871;52.004;5.924;2023-04-23T02:49:00;40.30;;;25.00;;
9665;SDS011;4871;52.004;5.924;2023-04-23T02:50:05;40.30;;;25.00;;
9665;SDS011;4871;52.004;5.924;2023-04-23T02:51:02;40.30;;;25.00;;
9665;SDS011;4871;52.004;5.924;2023-04-23T02:52:00;40.30;;;25.00;;
9665;SDS011;4871;52.004;5.924;2023-04-23T02:53:00;40.30;;;25.00;;
9665;SDS011;4871;52.004;5.924;2023-04-23T02:54:00;34.70;;;22.80;;
9665;SDS011;4871;52.004;5.924;2023-04-23T02:55:03;34.70;;;22.80;;
9665;SDS011;4871;52.004;5.924;2023-04-23T02:56:01;34.70;;;22.80;;
9665;SDS011;4871;52.004;5.924;2023-04-23T02:57:00;34.70;;;22.80;;
9665;SDS011;4871;52.004;5.924;2023-04-23T02:58:00;34.70;;;22.80;;
9665;SDS011;4871;52.004;5.924;2023-04-23T02:59:00;34.70;;;22.80;;
9665;SDS011;4871;52.004;5.924;2023-04-23T03:00:00;34.70;;;22.80;;
9665;SDS011;4871;52.004;5.924;2023-04-23T03:01:00;34.70;;;22.80;;
9665;SDS011;4871;52.004;5.924;2023-04-23T03:02:00;34.70;;;22.80;;
9665;SDS011;4871;52.004;5.924;2023-04-23T03:03:00;34.70;;;22.80;;
9665;SDS011;4871;52.004;5.924;2023-04-23T03:04:00;34.70;;;22.80;;
9665;SDS011;4871;52.004;5.924;2023-04-23T03:05:00;34.70;;;22.80;;
9665;SDS011;4871;52.004;5.924;2023-04-23T03:06:00;34.70;;;22.80;;
9665;SDS011;4871;52.004;5.924;2023-04-23T03:07:00;34.70;;;22.80;;
9665;SDS011;4871;52.004;5.924;2023-04-23T03:08:00;34.70;;;22.80;;
9665;SDS011;4871;52.004;5.924;2023-04-23T03:09:00;34.70;;;22.80;;
9665;SDS011;4871;52.004;5.924;2023-04-23T03:10:00;34.70;;;22.80;;
9665;SDS011;4871;52.004;5.924;2023-04-23T03:11:00;34.70;;;22.80;;
9665;SDS011;4871;52.004;5.924;2023-04-23T03:12:01;34.70;;;22.80;;
9665;SDS011;4871;52.004;5.924;2023-04-23T03:13:00;34.70;;;22.80;;
9665;SDS011;4871;52.004;5.924;2023-04-23T03:14:00;34.70;;;22.80;;
9665;SDS011;4871;52.004;5.924;2023-04-23T03:15:00;34.70;;;22.80;;
9665;SDS011;4871;52.004;5.924;2023-04-23T03:16:00;34.70;;;22.80;;
9665;SDS011;4871;52.004;5.924;2023-04-23T03:17:00;34.70;;;22.80;;
9665;SDS011;4871;52.004;5.924;2023-04-23T03:18:00;34.70;;;22.80;;
9665;SDS011;4871;52.004;5.924;2023-04-23T03:19:00;34.70;;;22.80;;
9665;SDS011;4871;52.004;5.924;2023-04-23T03:20:00;34.70;;;22.80;;
9665;SDS011;4871;52.004;5.924;2023-04-23T03:21:00;34.70;;;22.80;;
9665;SDS011;4871;52.004;5.924;2023-04-23T03:22:02;34.70;;;22.80;;
9665;SDS011;4871;52.004;5.924;2023-04-23T03:23:00;34.70;;;22.80;;
9665;SDS011;4871;52.004;5.924;2023-04-23T03:24:00;29.60;;;19.10;;
9665;SDS011;4871;52.004;5.924;2023-04-23T03:25:00;29.60;;;19.10;;
9665;SDS011;4871;52.004;5.924;2023-04-23T03:26:00;29.60;;;19.10;;
9665;SDS011;4871;52.004;5.924;2023-04-23T03:27:00;29.60;;;19.10;;
9665;SDS011;4871;52.004;5.924;2023-04-23T03:28:00;29.60;;;19.10;;
9665;SDS011;4871;52.004;5.924;2023-04-23T03:29:00;29.60;;;19.10;;
9665;SDS011;4871;52.004;5.924;2023-04-23T03:30:00;29.60;;;19.10;;
9665;SDS011;4871;52.004;5.924;2023-04-23T03:31:00;29.60;;;19.10;;
9665;SDS011;4871;52.004;5.924;2023-04-23T03:32:00;29.60;;;19.10;;
9665;SDS011;4871;52.004;5.924;2023-04-23T03:33:01;29.60;;;19.10;;
9665;SDS011;4871;52.004;5.924;2023-04-23T03:34:00;29.60;;;19.10;;
9665;SDS011;4871;52.004;5.924;2023-04-23T03:35:00;29.60;;;19.10;;
9665;SDS011;4871;52.004;5.924;2023-04-23T03:36:00;29.60;;;19.10;;
9665;SDS011;4871;52.004;5.924;2023-04-23T03:37:00;29.60;;;19.10;;
9665;SDS011;4871;52.004;5.924;2023-04-23T03:38:00;29.60;;;19.10;;
9665;SDS011;4871;52.004;5.924;2023-04-23T03:39:01;29.60;;;19.10;;
9665;SDS011;4871;52.004;5.924;2023-04-23T03:40:06;29.60;;;19.10;;
9665;SDS011;4871;52.004;5.924;2023-04-23T03:41:00;29.60;;;19.10;;
9665;SDS011;4871;52.004;5.924;2023-04-23T03:42:00;29.60;;;19.10;;
9665;SDS011;4871;52.004;5.924;2023-04-23T03:43:00;29.60;;;19.10;;
9665;SDS011;4871;52.004;5.924;2023-04-23T03:44:00;29.60;;;19.10;;
9665;SDS011;4871;52.004;5.924;2023-04-23T03:45:00;29.60;;;19.10;;
9665;SDS011;4871;52.004;5.924;2023-04-23T03:46:00;29.60;;;19.10;;
9665;SDS011;4871;52.004;5.924;2023-04-23T03:47:00;29.60;;;19.10;;
9665;SDS011;4871;52.004;5.924;2023-04-23T03:48:00;29.60;;;19.10;;
9665;SDS011;4871;52.004;5.924;2023-04-23T03:49:00;29.60;;;19.10;;
9665;SDS011;4871;52.004;5.924;2023-04-23T03:50:00;29.60;;;19.10;;
9665;SDS011;4871;52.004;5.924;2023-04-23T03:51:00;29.60;;;19.10;;
9665;SDS011;4871;52.004;5.924;2023-04-23T03:52:00;29.60;;;19.10;;
9665;SDS011;4871;52.004;5.924;2023-04-23T03:53:00;29.60;;;19.10;;
9665;SDS011;4871;52.004;5.924;2023-04-23T03:54:00;30.60;;;19.30;;
9665;SDS011;4871;52.004;5.924;2023-04-23T03:55:00;30.60;;;19.30;;
9665;SDS011;4871;52.004;5.924;2023-04-23T03:56:00;30.60;;;19.30;;
9665;SDS011;4871;52.004;5.924;2023-04-23T03:57:00;30.60;;;19.30;;
9665;SDS011;4871;52.004;5.924;2023-04-23T03:58:01;30.60;;;19.30;;
9665;SDS011;4871;52.004;5.924;2023-04-23T03:59:00;30.60;;;19.30;;
9665;SDS011;4871;52.004;5.924;2023-04-23T04:00:00;30.60;;;19.30;;
9665;SDS011;4871;52.004;5.924;2023-04-23T04:01:00;30.60;;;19.30;;
9665;SDS011;4871;52.004;5.924;2023-04-23T04:02:03;30.60;;;19.30;;
9665;SDS011;4871;52.004;5.924;2023-04-23T04:03:01;30.60;;;19.30;;
9665;SDS011;4871;52.004;5.924;2023-04-23T04:04:00;30.60;;;19.30;;
9665;SDS011;4871;52.004;5.924;2023-04-23T04:05:00;30.60;;;19.30;;
9665;SDS011;4871;52.004;5.924;2023-04-23T04:06:00;30.60;;;19.30;;
9665;SDS011;4871;52.004;5.924;2023-04-23T04:07:00;30.60;;;19.30;;
9665;SDS011;4871;52.004;5.924;2023-04-23T04:08:00;30.60;;;19.30;;
9665;SDS011;4871;52.004;5.924;2023-04-23T04:09:00;30.60;;;19.30;;
9665;SDS011;4871;52.004;5.924;2023-04-23T04:10:02;30.60;;;19.30;;
9665;SDS011;4871;52.004;5.924;2023-04-23T04:11:00;30.60;;;19.30;;
9665;SDS011;4871;52.004;5.924;2023-04-23T04:12:00;30.60;;;19.30;;
9665;SDS011;4871;52.004;5.924;2023-04-23T04:13:00;30.60;;;19.30;;
9665;SDS011;4871;52.004;5.924;2023-04-23T04:14:00;30.60;;;19.30;;
9665;SDS011;4871;52.004;5.924;2023-04-23T04:15:02;30.60;;;19.30;;
9665;SDS011;4871;52.004;5.924;2023-04-23T04:16:00;30.60;;;19.30;;
9665;SDS011;4871;52.004;5.924;2023-04-23T04:17:00;30.60;;;19.30;;
9665;SDS011;4871;52.004;5.924;2023-04-23T04:18:00;30.60;;;19.30;;
9665;SDS011;4871;52.004;5.924;2023-04-23T04:19:01;30.60;;;19.30;;
9665;SDS011;4871;52.004;5.924;2023-04-23T04:20:00;30.60;;;19.30;;
9665;SDS011;4871;52.004;5.924;2023-04-23T04:21:00;30.60;;;19.30;;
9665;SDS011;4871;52.004;5.924;2023-04-23T04:22:02;30.60;;;19.30;;
9665;SDS011;4871;52.004;5.924;2023-04-23T04:23:00;30.60;;;19.30;;
9665;SDS011;4871;52.004;5.924;2023-04-23T04:24:01;28.40;;;18.90;;
9665;SDS011;4871;52.004;5.924;2023-04-23T04:25:00;28.40;;;18.90;;
9665;SDS011;4871;52.004;5.924;2023-04-23T04:26:00;28.40;;;18.90;;
9665;SDS011;4871;52.004;5.924;2023-04-23T04:27:00;28.40;;;18.90;;
9665;SDS011;4871;52.004;5.924;2023-04-23T04:28:00;28.40;;;18.90;;
9665;SDS011;4871;52.004;5.924;2023-04-23T04:29:01;28.40;;;18.90;;
9665;SDS011;4871;52.004;5.924;2023-04-23T04:30:01;28.40;;;18.90;;
9665;SDS011;4871;52.004;5.924;2023-04-23T04:31:01;28.40;;;18.90;;
9665;SDS011;4871;52.004;5.924;2023-04-23T04:32:01;28.40;;;18.90;;
9665;SDS011;4871;52.004;5.924;2023-04-23T04:33:00;28.40;;;18.90;;
9665;SDS011;4871;52.004;5.924;2023-04-23T04:34:00;28.40;;;18.90;;
9665;SDS011;4871;52.004;5.924;2023-04-23T04:35:01;28.40;;;18.90;;
9665;SDS011;4871;52.004;5.924;2023-04-23T04:36:00;28.40;;;18.90;;
9665;SDS011;4871;52.004;5.924;2023-04-23T04:37:00;28.40;;;18.90;;
9665;SDS011;4871;52.004;5.924;2023-04-23T04:38:00;28.40;;;18.90;;
9665;SDS011;4871;52.004;5.924;2023-04-23T04:39:02;28.40;;;18.90;;
9665;SDS011;4871;52.004;5.924;2023-04-23T04:40:01;28.40;;;18.90;;
9665;SDS011;4871;52.004;5.924;2023-04-23T04:41:00;28.40;;;18.90;;
9665;SDS011;4871;52.004;5.924;2023-04-23T04:42:02;28.40;;;18.90;;
9665;SDS011;4871;52.004;5.924;2023-04-23T04:43:00;28.40;;;18.90;;
9665;SDS011;4871;52.004;5.924;2023-04-23T04:44:00;28.40;;;18.90;;
9665;SDS011;4871;52.004;5.924;2023-04-23T04:45:00;28.40;;;18.90;;
9665;SDS011;4871;52.004;5.924;2023-04-23T04:46:00;28.40;;;18.90;;
9665;SDS011;4871;52.004;5.924;2023-04-23T04:47:00;28.40;;;18.90;;
9665;SDS011;4871;52.004;5.924;2023-04-23T04:48:00;28.40;;;18.90;;
9665;SDS011;4871;52.004;5.924;2023-04-23T04:49:00;28.40;;;18.90;;
9665;SDS011;4871;52.004;5.924;2023-04-23T04:50:00;28.40;;;18.90;;
9665;SDS011;4871;52.004;5.924;2023-04-23T04:51:00;28.40;;;18.90;;
9665;SDS011;4871;52.004;5.924;2023-04-23T04:52:00;28.40;;;18.90;;
9665;SDS011;4871;52.004;5.924;2023-04-23T04:53:00;28.40;;;18.90;;
9665;SDS011;4871;52.004;5.924;2023-04-23T04:54:00;26.30;;;18.30;;
9665;SDS011;4871;52.004;5.924;2023-04-23T04:55:00;26.30;;;18.30;;
9665;SDS011;4871;52.004;5.924;2023-04-23T04:56:00;26.30;;;18.30;;
9665;SDS011;4871;52.004;5.924;2023-04-23T04:57:01;26.30;;;18.30;;
9665;SDS011;4871;52.004;5.924;2023-04-23T04:58:00;26.30;;;18.30;;
9665;SDS011;4871;52.004;5.924;2023-04-23T04:59:00;26.30;;;18.30;;
9665;SDS011;4871;52.004;5.924;2023-04-23T05:00:01;26.30;;;18.30;;
9665;SDS011;4871;52.004;5.924;2023-04-23T05:01:00;26.30;;;18.30;;
9665;SDS011;4871;52.004;5.924;2023-04-23T05:02:00;26.30;;;18.30;;
9665;SDS011;4871;52.004;5.924;2023-04-23T05:03:00;26.30;;;18.30;;
9665;SDS011;4871;52.004;5.924;2023-04-23T05:04:00;26.30;;;18.30;;
9665;SDS011;4871;52.004;5.924;2023-04-23T05:05:00;26.30;;;18.30;;
9665;SDS011;4871;52.004;5.924;2023-04-23T05:06:00;26.30;;;18.30;;
9665;SDS011;4871;52.004;5.924;2023-04-23T05:07:00;26.30;;;18.30;;
9665;SDS011;4871;52.004;5.924;2023-04-23T05:08:01;26.30;;;18.30;;
9665;SDS011;4871;52.004;5.924;2023-04-23T05:09:00;26.30;;;18.30;;
9665;SDS011;4871;52.004;5.924;2023-04-23T05:10:00;26.30;;;18.30;;
9665;SDS011;4871;52.004;5.924;2023-04-23T05:11:01;26.30;;;18.30;;
9665;SDS011;4871;52.004;5.924;2023-04-23T05:12:00;26.30;;;18.30;;
9665;SDS011;4871;52.004;5.924;2023-04-23T05:13:00;26.30;;;18.30;;
9665;SDS011;4871;52.004;5.924;2023-04-23T05:14:00;26.30;;;18.30;;
9665;SDS011;4871;52.004;5.924;2023-04-23T05:15:00;26.30;;;18.30;;
9665;SDS011;4871;52.004;5.924;2023-04-23T05:16:00;26.30;;;18.30;;
9665;SDS011;4871;52.004;5.924;2023-04-23T05:17:00;26.30;;;18.30;;
9665;SDS011;4871;52.004;5.924;2023-04-23T05:18:01;26.30;;;18.30;;
9665;SDS011;4871;52.004;5.924;2023-04-23T05:19:00;26.30;;;18.30;;
9665;SDS011;4871;52.004;5.924;2023-04-23T05:20:00;26.30;;;18.30;;
9665;SDS011;4871;52.004;5.924;2023-04-23T05:21:00;26.30;;;18.30;;
9665;SDS011;4871;52.004;5.924;2023-04-23T05:22:02;26.30;;;18.30;;
9665;SDS011;4871;52.004;5.924;2023-04-23T05:23:01;26.30;;;18.30;;
9665;SDS011;4871;52.004;5.924;2023-04-23T05:24:00;25.00;;;17.80;;
9665;SDS011;4871;52.004;5.924;2023-04-23T05:25:00;25.00;;;17.80;;
9665;SDS011;4871;52.004;5.924;2023-04-23T05:26:02;25.00;;;17.80;;
9665;SDS011;4871;52.004;5.924;2023-04-23T05:27:00;25.00;;;17.80;;
9665;SDS011;4871;52.004;5.924;2023-04-23T05:28:00;25.00;;;17.80;;
9665;SDS011;4871;52.004;5.924;2023-04-23T05:29:00;25.00;;;17.80;;
9665;SDS011;4871;52.004;5.924;2023-04-23T05:30:00;25.00;;;17.80;;
9665;SDS011;4871;52.004;5.924;2023-04-23T05:31:00;25.00;;;17.80;;
9665;SDS011;4871;52.004;5.924;2023-04-23T05:32:00;25.00;;;17.80;;
9665;SDS011;4871;52.004;5.924;2023-04-23T05:33:00;25.00;;;17.80;;
9665;SDS011;4871;52.004;5.924;2023-04-23T05:34:00;25.00;;;17.80;;
9665;SDS011;4871;52.004;5.924;2023-04-23T05:35:01;25.00;;;17.80;;
9665;SDS011;4871;52.004;5.924;2023-04-23T05:36:00;25.00;;;17.80;;
9665;SDS011;4871;52.004;5.924;2023-04-23T05:37:00;25.00;;;17.80;;
9665;SDS011;4871;52.004;5.924;2023-04-23T05:38:01;25.00;;;17.80;;
9665;SDS011;4871;52.004;5.924;2023-04-23T05:39:00;25.00;;;17.80;;
9665;SDS011;4871;52.004;5.924;2023-04-23T05:40:01;25.00;;;17.80;;
9665;SDS011;4871;52.004;5.924;2023-04-23T05:41:00;25.00;;;17.80;;
9665;SDS011;4871;52.004;5.924;2023-04-23T05:42:01;25.00;;;17.80;;
9665;SDS011;4871;52.004;5.924;2023-04-23T05:43:00;25.00;;;17.80;;
9665;SDS011;4871;52.004;5.924;2023-04-23T05:44:00;25.00;;;17.80;;
9665;SDS011;4871;52.004;5.924;2023-04-23T05:45:00;25.00;;;17.80;;
9665;SDS011;4871;52.004;5.924;2023-04-23T05:46:01;25.00;;;17.80;;
9665;SDS011;4871;52.004;5.924;2023-04-23T05:47:00;25.00;;;17.80;;
9665;SDS011;4871;52.004;5.924;2023-04-23T05:48:00;25.00;;;17.80;;
9665;SDS011;4871;52.004;5.924;2023-04-23T05:49:00;25.00;;;17.80;;
9665;SDS011;4871;52.004;5.924;2023-04-23T05:50:01;25.00;;;17.80;;
9665;SDS011;4871;52.004;5.924;2023-04-23T05:51:00;25.00;;;17.80;;
9665;SDS011;4871;52.004;5.924;2023-04-23T05:52:01;25.00;;;17.80;;
9665;SDS011;4871;52.004;5.924;2023-04-23T05:53:00;25.00;;;17.80;;
9665;SDS011;4871;52.004;5.924;2023-04-23T05:54:00;23.40;;;16.60;;
9665;SDS011;4871;52.004;5.924;2023-04-23T05:55:00;23.40;;;16.60;;
9665;SDS011;4871;52.004;5.924;2023-04-23T05:56:00;23.40;;;16.60;;
9665;SDS011;4871;52.004;5.924;2023-04-23T05:57:00;23.40;;;16.60;;
9665;SDS011;4871;52.004;5.924;2023-04-23T05:58:01;23.40;;;16.60;;
9665;SDS011;4871;52.004;5.924;2023-04-23T05:59:00;23.40;;;16.60;;
9665;SDS011;4871;52.004;5.924;2023-04-23T06:00:00;23.40;;;16.60;;
9665;SDS011;4871;52.004;5.924;2023-04-23T06:01:00;23.40;;;16.60;;